sensor_id;sensor_type;location;lat;lon;timestamp;pressure;altitude;pressure_sealevel;temperature;humidity
20119;BME280;10220;42.716;23.306;2022-11-14T00:00:07;96403.03;;;7.18;100.00
20119;BME280;10220;42.716;23.306;2022-11-14T00:02:34;96410.59;;;6.34;100.00
20119;BME280;10220;42.716;23.306;2022-11-14T00:05:00;96396.56;;;7.39;100.00
20119;BME280;10220;42.716;23.306;2022-11-14T00:07:28;96406.69;;;7.66;100.00
20119;BME280;10220;42.716;23.306;2022-11-14T00:09:54;96400.47;;;6.93;100.00
20119;BME280;10220;42.716;23.306;2022-11-14T00:12:19;96340.47;;;7.33;100.00
20119;BME280;10220;42.716;23.306;2022-11-14T00:14:45;96405.88;;;8.79;100.00
20119;BME280;10220;42.716;23.306;2022-11-14T00:17:10;96390.16;;;9.13;100.00
20119;BME280;10220;42.716;23.306;2022-11-14T00:19:35;96395.53;;;8.79;100.00
20119;BME280;10220;42.716;23.306;2022-11-14T00:22:01;96395.41;;;8.08;100.00
20119;BME280;10220;42.716;23.306;2022-11-14T00:24:26;96393.41;;;8.75;100.00
20119;BME280;10220;42.716;23.306;2022-11-14T00:26:51;96396.84;;;8.68;100.00
20119;BME280;10220;42.716;23.306;2022-11-14T00:29:17;96403.75;;;8.67;100.00
20119;BME280;10220;42.716;23.306;2022-11-14T00:31:42;96392.88;;;9.43;100.00
20119;BME280;10220;42.716;23.306;2022-11-14T00:34:08;96395.19;;;9.22;100.00
20119;BME280;10220;42.716;23.306;2022-11-14T00:36:33;96394.38;;;9.76;100.00
20119;BME280;10220;42.716;23.306;2022-11-14T00:38:59;96408.44;;;9.27;100.00
20119;BME280;10220;42.716;23.306;2022-11-14T00:41:25;96404.56;;;8.83;100.00
20119;BME280;10220;42.716;23.306;2022-11-14T00:43:50;96361.75;;;7.76;100.00
20119;BME280;10220;42.716;23.306;2022-11-14T00:46:16;96406.66;;;8.40;100.00
20119;BME280;10220;42.716;23.306;2022-11-14T00:48:41;96404.81;;;8.17;100.00
20119;BME280;10220;42.716;23.306;2022-11-14T00:51:07;96405.47;;;8.27;100.00
20119;BME280;10220;42.716;23.306;2022-11-14T00:53:33;96365.31;;;8.88;100.00
20119;BME280;10220;42.716;23.306;2022-11-14T00:55:58;96405.03;;;8.39;100.00
20119;BME280;10220;42.716;23.306;2022-11-14T00:58:23;96389.22;;;8.58;100.00
20119;BME280;10220;42.716;23.306;2022-11-14T01:00:50;96418.25;;;7.29;100.00
20119;BME280;10220;42.716;23.306;2022-11-14T01:03:15;96409.00;;;6.93;100.00
20119;BME280;10220;42.716;23.306;2022-11-14T01:05:42;96394.97;;;7.38;100.00
20119;BME280;10220;42.716;23.306;2022-11-14T01:08:09;96399.66;;;7.17;100.00
20119;BME280;10220;42.716;23.306;2022-11-14T01:10:38;96409.75;;;7.11;100.00
20119;BME280;10220;42.716;23.306;2022-11-14T01:13:04;96381.84;;;6.99;100.00
20119;BME280;10220;42.716;23.306;2022-11-14T01:15:30;96384.28;;;7.33;100.00
20119;BME280;10220;42.716;23.306;2022-11-14T01:17:55;96386.31;;;7.80;100.00
20119;BME280;10220;42.716;23.306;2022-11-14T01:20:20;96370.50;;;7.83;100.00
20119;BME280;10220;42.716;23.306;2022-11-14T01:22:46;96330.88;;;9.19;100.00
20119;BME280;10220;42.716;23.306;2022-11-14T01:25:11;96387.09;;;9.25;100.00
20119;BME280;10220;42.716;23.306;2022-11-14T01:27:37;96373.22;;;6.65;100.00
20119;BME280;10220;42.716;23.306;2022-11-14T01:30:03;96382.47;;;5.25;100.00
20119;BME280;10220;42.716;23.306;2022-11-14T01:32:28;96358.53;;;7.33;100.00
20119;BME280;10220;42.716;23.306;2022-11-14T01:34:53;96388.06;;;8.37;100.00
20119;BME280;10220;42.716;23.306;2022-11-14T01:37:19;96377.25;;;5.81;100.00
20119;BME280;10220;42.716;23.306;2022-11-14T01:39:44;96387.59;;;6.93;100.00
20119;BME280;10220;42.716;23.306;2022-11-14T01:42:10;96378.59;;;6.71;100.00
20119;BME280;10220;42.716;23.306;2022-11-14T01:47:10;96399.88;;;4.76;100.00
20119;BME280;10220;42.716;23.306;2022-11-14T01:49:43;96353.41;;;6.23;100.00
20119;BME280;10220;42.716;23.306;2022-11-14T01:52:13;96353.69;;;6.80;100.00
20119;BME280;10220;42.716;23.306;2022-11-14T01:54:48;96336.28;;;6.99;100.00
20119;BME280;10220;42.716;23.306;2022-11-14T01:57:18;96325.31;;;8.28;100.00
20119;BME280;10220;42.716;23.306;2022-11-14T01:59:49;96345.34;;;7.77;100.00
20119;BME280;10220;42.716;23.306;2022-11-14T02:02:24;96347.50;;;7.57;100.00
20119;BME280;10220;42.716;23.306;2022-11-14T02:04:56;96335.09;;;8.09;100.00
20119;BME280;10220;42.716;23.306;2022-11-14T02:07:24;96350.97;;;8.38;100.00
20119;BME280;10220;42.716;23.306;2022-11-14T02:09:52;96348.34;;;8.14;100.00
20119;BME280;10220;42.716;23.306;2022-11-14T02:12:18;96352.97;;;7.20;100.00
20119;BME280;10220;42.716;23.306;2022-11-14T02:14:46;96343.53;;;6.36;100.00
20119;BME280;10220;42.716;23.306;2022-11-14T02:17:13;96369.47;;;6.07;100.00
20119;BME280;10220;42.716;23.306;2022-11-14T02:19:41;96363.91;;;6.12;100.00
20119;BME280;10220;42.716;23.306;2022-11-14T02:22:06;96346.09;;;7.70;100.00
20119;BME280;10220;42.716;23.306;2022-11-14T02:24:32;96332.41;;;8.58;100.00
20119;BME280;10220;42.716;23.306;2022-11-14T02:26:58;96329.66;;;8.76;100.00
20119;BME280;10220;42.716;23.306;2022-11-14T02:29:23;96325.66;;;8.57;100.00
20119;BME280;10220;42.716;23.306;2022-11-14T02:31:48;96326.00;;;7.89;100.00
20119;BME280;10220;42.716;23.306;2022-11-14T02:34:14;96340.34;;;8.73;100.00
20119;BME280;10220;42.716;23.306;2022-11-14T02:36:44;96329.59;;;7.96;100.00
20119;BME280;10220;42.716;23.306;2022-11-14T02:39:09;96342.88;;;9.50;100.00
20119;BME280;10220;42.716;23.306;2022-11-14T02:41:34;96334.03;;;9.45;100.00
20119;BME280;10220;42.716;23.306;2022-11-14T02:44:00;96332.53;;;9.50;100.00
20119;BME280;10220;42.716;23.306;2022-11-14T02:46:25;96342.59;;;8.68;100.00
20119;BME280;10220;42.716;23.306;2022-11-14T02:48:51;96332.09;;;8.37;100.00
20119;BME280;10220;42.716;23.306;2022-11-14T02:51:16;96310.25;;;8.00;100.00
20119;BME280;10220;42.716;23.306;2022-11-14T02:53:42;96316.94;;;8.34;100.00
20119;BME280;10220;42.716;23.306;2022-11-14T02:56:07;96337.88;;;8.79;100.00
20119;BME280;10220;42.716;23.306;2022-11-14T02:58:32;96365.84;;;9.99;100.00
20119;BME280;10220;42.716;23.306;2022-11-14T03:00:58;96344.31;;;9.15;100.00
20119;BME280;10220;42.716;23.306;2022-11-14T03:03:23;96279.47;;;8.78;100.00
20119;BME280;10220;42.716;23.306;2022-11-14T03:05:48;96308.13;;;7.39;100.00
20119;BME280;10220;42.716;23.306;2022-11-14T03:08:17;96327.13;;;9.30;100.00
20119;BME280;10220;42.716;23.306;2022-11-14T03:10:44;96335.84;;;7.86;100.00
20119;BME280;10220;42.716;23.306;2022-11-14T03:13:10;96331.19;;;9.24;100.00
20119;BME280;10220;42.716;23.306;2022-11-14T03:15:36;96295.81;;;8.39;100.00
20119;BME280;10220;42.716;23.306;2022-11-14T03:18:02;96343.44;;;6.88;100.00
20119;BME280;10220;42.716;23.306;2022-11-14T03:20:27;96337.16;;;6.05;100.00
20119;BME280;10220;42.716;23.306;2022-11-14T03:22:52;96303.75;;;7.23;100.00
20119;BME280;10220;42.716;23.306;2022-11-14T03:25:18;96337.59;;;5.83;100.00
20119;BME280;10220;42.716;23.306;2022-11-14T03:27:43;96329.38;;;4.90;100.00
20119;BME280;10220;42.716;23.306;2022-11-14T03:30:09;96329.06;;;6.52;100.00
20119;BME280;10220;42.716;23.306;2022-11-14T03:32:35;96333.22;;;7.29;100.00
20119;BME280;10220;42.716;23.306;2022-11-14T03:35:00;96338.69;;;8.24;100.00
20119;BME280;10220;42.716;23.306;2022-11-14T03:37:25;96327.38;;;9.04;100.00
20119;BME280;10220;42.716;23.306;2022-11-14T03:39:51;96336.53;;;9.61;100.00
20119;BME280;10220;42.716;23.306;2022-11-14T03:42:16;96339.34;;;8.81;100.00
20119;BME280;10220;42.716;23.306;2022-11-14T03:44:42;96329.50;;;8.37;100.00
20119;BME280;10220;42.716;23.306;2022-11-14T03:47:07;96304.69;;;8.36;100.00
20119;BME280;10220;42.716;23.306;2022-11-14T03:49:32;96316.59;;;8.37;100.00
20119;BME280;10220;42.716;23.306;2022-11-14T03:51:58;96316.44;;;8.55;100.00
20119;BME280;10220;42.716;23.306;2022-11-14T03:54:23;96306.63;;;7.69;100.00
20119;BME280;10220;42.716;23.306;2022-11-14T03:56:49;96313.22;;;8.29;100.00
20119;BME280;10220;42.716;23.306;2022-11-14T03:59:14;96266.06;;;7.87;100.00
20119;BME280;10220;42.716;23.306;2022-11-14T04:01:39;96325.59;;;7.53;100.00
20119;BME280;10220;42.716;23.306;2022-11-14T04:04:05;96332.88;;;7.57;100.00
20119;BME280;10220;42.716;23.306;2022-11-14T04:06:30;96321.00;;;7.80;100.00
20119;BME280;10220;42.716;23.306;2022-11-14T04:08:56;96330.91;;;8.08;100.00
20119;BME280;10220;42.716;23.306;2022-11-14T04:11:21;96284.56;;;7.75;100.00
20119;BME280;10220;42.716;23.306;2022-11-14T04:13:47;96328.53;;;8.46;100.00
20119;BME280;10220;42.716;23.306;2022-11-14T04:16:12;96327.44;;;7.76;100.00
20119;BME280;10220;42.716;23.306;2022-11-14T04:18:37;96318.19;;;7.57;100.00
20119;BME280;10220;42.716;23.306;2022-11-14T04:21:03;96343.50;;;6.70;100.00
20119;BME280;10220;42.716;23.306;2022-11-14T04:23:28;96337.06;;;7.66;100.00
20119;BME280;10220;42.716;23.306;2022-11-14T04:25:55;96324.50;;;7.63;100.00
20119;BME280;10220;42.716;23.306;2022-11-14T04:28:21;96265.56;;;7.27;100.00
20119;BME280;10220;42.716;23.306;2022-11-14T04:30:46;96266.22;;;9.35;100.00
20119;BME280;10220;42.716;23.306;2022-11-14T04:33:12;96287.69;;;8.74;100.00
20119;BME280;10220;42.716;23.306;2022-11-14T04:35:37;96290.09;;;8.91;100.00
20119;BME280;10220;42.716;23.306;2022-11-14T04:38:03;96266.09;;;8.27;100.00
20119;BME280;10220;42.716;23.306;2022-11-14T04:40:31;96319.41;;;7.87;100.00
20119;BME280;10220;42.716;23.306;2022-11-14T04:42:57;96285.75;;;7.88;100.00
20119;BME280;10220;42.716;23.306;2022-11-14T04:45:22;96317.25;;;8.16;100.00
20119;BME280;10220;42.716;23.306;2022-11-14T04:47:47;96293.97;;;7.43;100.00
20119;BME280;10220;42.716;23.306;2022-11-14T04:50:13;96324.47;;;6.21;100.00
20119;BME280;10220;42.716;23.306;2022-11-14T04:52:38;96303.22;;;6.61;100.00
20119;BME280;10220;42.716;23.306;2022-11-14T04:55:04;96299.03;;;7.52;100.00
20119;BME280;10220;42.716;23.306;2022-11-14T04:57:29;96297.81;;;7.88;100.00
20119;BME280;10220;42.716;23.306;2022-11-14T04:59:55;96294.78;;;7.92;100.00
20119;BME280;10220;42.716;23.306;2022-11-14T05:02:20;96315.34;;;7.76;100.00
20119;BME280;10220;42.716;23.306;2022-11-14T05:04:46;96290.34;;;7.61;100.00
20119;BME280;10220;42.716;23.306;2022-11-14T05:07:12;96318.53;;;7.55;100.00
20119;BME280;10220;42.716;23.306;2022-11-14T05:09:38;96318.34;;;7.15;100.00
20119;BME280;10220;42.716;23.306;2022-11-14T05:12:04;96272.22;;;6.96;100.00
20119;BME280;10220;42.716;23.306;2022-11-14T05:14:30;96330.91;;;7.18;100.00
20119;BME280;10220;42.716;23.306;2022-11-14T05:16:56;96324.59;;;6.62;100.00
20119;BME280;10220;42.716;23.306;2022-11-14T05:19:21;96299.13;;;6.34;100.00
20119;BME280;10220;42.716;23.306;2022-11-14T05:21:47;96327.81;;;6.39;100.00
20119;BME280;10220;42.716;23.306;2022-11-14T05:24:12;96275.16;;;6.08;100.00
20119;BME280;10220;42.716;23.306;2022-11-14T05:26:38;96332.41;;;6.27;100.00
20119;BME280;10220;42.716;23.306;2022-11-14T05:29:04;96334.38;;;6.16;100.00
20119;BME280;10220;42.716;23.306;2022-11-14T05:31:30;96294.19;;;5.97;100.00
20119;BME280;10220;42.716;23.306;2022-11-14T05:33:55;96337.00;;;6.06;100.00
20119;BME280;10220;42.716;23.306;2022-11-14T05:36:20;96297.59;;;5.71;100.00
20119;BME280;10220;42.716;23.306;2022-11-14T05:38:46;96340.53;;;6.23;100.00
20119;BME280;10220;42.716;23.306;2022-11-14T05:41:13;96319.06;;;6.74;100.00
20119;BME280;10220;42.716;23.306;2022-11-14T05:43:42;96316.88;;;6.62;100.00
20119;BME280;10220;42.716;23.306;2022-11-14T05:46:10;96301.84;;;5.36;100.00
20119;BME280;10220;42.716;23.306;2022-11-14T05:48:36;96335.00;;;4.93;100.00
20119;BME280;10220;42.716;23.306;2022-11-14T05:51:03;96347.78;;;5.12;100.00
20119;BME280;10220;42.716;23.306;2022-11-14T05:53:29;96319.06;;;4.44;100.00
20119;BME280;10220;42.716;23.306;2022-11-14T05:56:02;96317.31;;;4.26;100.00
20119;BME280;10220;42.716;23.306;2022-11-14T05:58:30;96349.47;;;4.30;100.00
20119;BME280;10220;42.716;23.306;2022-11-14T06:03:36;96331.34;;;4.50;100.00
20119;BME280;10220;42.716;23.306;2022-11-14T06:06:04;96321.50;;;4.46;100.00
20119;BME280;10220;42.716;23.306;2022-11-14T06:08:31;96341.16;;;4.73;100.00
20119;BME280;10220;42.716;23.306;2022-11-14T06:11:04;96344.19;;;4.96;100.00
20119;BME280;10220;42.716;23.306;2022-11-14T06:13:30;96308.84;;;4.90;100.00
20119;BME280;10220;42.716;23.306;2022-11-14T06:15:59;96352.38;;;5.09;100.00
20119;BME280;10220;42.716;23.306;2022-11-14T06:18:26;96297.88;;;4.88;100.00
20119;BME280;10220;42.716;23.306;2022-11-14T06:20:52;96364.22;;;5.28;100.00
20119;BME280;10220;42.716;23.306;2022-11-14T06:23:17;96356.00;;;5.25;100.00
20119;BME280;10220;42.716;23.306;2022-11-14T06:25:43;96325.22;;;5.06;100.00
20119;BME280;10220;42.716;23.306;2022-11-14T06:28:08;96356.66;;;4.91;100.00
20119;BME280;10220;42.716;23.306;2022-11-14T06:30:34;96352.50;;;4.71;100.00
20119;BME280;10220;42.716;23.306;2022-11-14T06:32:59;96333.41;;;4.83;100.00
20119;BME280;10220;42.716;23.306;2022-11-14T06:35:25;96338.84;;;4.80;100.00
20119;BME280;10220;42.716;23.306;2022-11-14T06:37:51;96315.09;;;4.68;100.00
20119;BME280;10220;42.716;23.306;2022-11-14T06:40:16;96341.69;;;4.77;100.00
20119;BME280;10220;42.716;23.306;2022-11-14T06:42:42;96353.66;;;4.95;100.00
20119;BME280;10220;42.716;23.306;2022-11-14T06:45:07;96359.78;;;4.75;100.00
20119;BME280;10220;42.716;23.306;2022-11-14T06:47:33;96329.44;;;4.52;100.00
20119;BME280;10220;42.716;23.306;2022-11-14T06:49:58;96348.00;;;4.82;100.00
20119;BME280;10220;42.716;23.306;2022-11-14T06:52:23;96342.97;;;5.00;100.00
20119;BME280;10220;42.716;23.306;2022-11-14T06:54:50;96310.38;;;4.64;100.00
20119;BME280;10220;42.716;23.306;2022-11-14T06:57:16;96304.22;;;4.57;100.00
20119;BME280;10220;42.716;23.306;2022-11-14T06:59:41;96272.22;;;4.42;100.00
20119;BME280;10220;42.716;23.306;2022-11-14T07:02:11;96351.25;;;4.75;100.00
20119;BME280;10220;42.716;23.306;2022-11-14T07:04:36;96298.94;;;4.49;100.00
20119;BME280;10220;42.716;23.306;2022-11-14T07:07:01;96328.50;;;4.63;100.00
20119;BME280;10220;42.716;23.306;2022-11-14T07:09:27;96295.78;;;4.64;100.00
20119;BME280;10220;42.716;23.306;2022-11-14T07:11:52;96307.06;;;4.90;100.00
20119;BME280;10220;42.716;23.306;2022-11-14T07:14:18;96268.22;;;4.76;100.00
20119;BME280;10220;42.716;23.306;2022-11-14T07:16:44;96272.31;;;4.96;100.00
20119;BME280;10220;42.716;23.306;2022-11-14T07:19:10;96292.25;;;4.84;100.00
20119;BME280;10220;42.716;23.306;2022-11-14T07:21:35;96298.97;;;4.85;100.00
20119;BME280;10220;42.716;23.306;2022-11-14T07:24:01;96314.72;;;5.00;100.00
20119;BME280;10220;42.716;23.306;2022-11-14T07:26:26;96205.53;;;3.97;100.00
20119;BME280;10220;42.716;23.306;2022-11-14T07:28:52;96324.19;;;4.99;100.00
20119;BME280;10220;42.716;23.306;2022-11-14T07:31:18;96323.22;;;5.10;100.00
20119;BME280;10220;42.716;23.306;2022-11-14T07:33:44;96321.81;;;5.15;100.00
20119;BME280;10220;42.716;23.306;2022-11-14T07:36:12;96282.72;;;4.94;100.00
20119;BME280;10220;42.716;23.306;2022-11-14T07:38:38;96263.44;;;4.90;100.00
20119;BME280;10220;42.716;23.306;2022-11-14T07:41:06;96272.19;;;5.24;100.00
20119;BME280;10220;42.716;23.306;2022-11-14T07:43:32;96272.56;;;5.29;100.00
20119;BME280;10220;42.716;23.306;2022-11-14T07:46:02;96269.84;;;5.30;100.00
20119;BME280;10220;42.716;23.306;2022-11-14T07:48:29;96298.47;;;5.62;100.00
20119;BME280;10220;42.716;23.306;2022-11-14T07:51:03;96263.22;;;5.55;100.00
20119;BME280;10220;42.716;23.306;2022-11-14T07:53:29;96265.94;;;5.53;100.00
20119;BME280;10220;42.716;23.306;2022-11-14T07:55:56;96253.91;;;5.54;100.00
20119;BME280;10220;42.716;23.306;2022-11-14T07:58:22;96259.34;;;5.51;100.00
20119;BME280;10220;42.716;23.306;2022-11-14T08:00:47;96274.09;;;5.66;100.00
20119;BME280;10220;42.716;23.306;2022-11-14T08:03:13;96287.72;;;5.76;100.00
20119;BME280;10220;42.716;23.306;2022-11-14T08:05:38;96237.22;;;5.40;100.00
20119;BME280;10220;42.716;23.306;2022-11-14T08:08:04;96322.97;;;5.83;100.00
20119;BME280;10220;42.716;23.306;2022-11-14T08:10:29;96272.09;;;5.60;100.00
20119;BME280;10220;42.716;23.306;2022-11-14T08:12:59;96307.78;;;5.63;100.00
20119;BME280;10220;42.716;23.306;2022-11-14T08:15:26;96309.75;;;5.25;100.00
20119;BME280;10220;42.716;23.306;2022-11-14T08:17:59;96257.22;;;4.93;100.00
20119;BME280;10220;42.716;23.306;2022-11-14T08:20:25;96313.78;;;5.01;100.00
20119;BME280;10220;42.716;23.306;2022-11-14T08:22:52;96315.09;;;5.05;100.00
20119;BME280;10220;42.716;23.306;2022-11-14T08:25:17;96284.16;;;5.06;100.00
20119;BME280;10220;42.716;23.306;2022-11-14T08:27:43;96274.09;;;5.22;100.00
20119;BME280;10220;42.716;23.306;2022-11-14T08:30:09;96283.25;;;5.51;100.00
20119;BME280;10220;42.716;23.306;2022-11-14T08:32:34;96273.19;;;5.40;100.00
20119;BME280;10220;42.716;23.306;2022-11-14T08:34:59;96272.31;;;5.49;100.00
20119;BME280;10220;42.716;23.306;2022-11-14T08:37:25;96305.59;;;5.41;100.00
20119;BME280;10220;42.716;23.306;2022-11-14T08:39:50;96241.63;;;5.04;100.00
20119;BME280;10220;42.716;23.306;2022-11-14T08:42:16;96274.38;;;4.92;100.00
20119;BME280;10220;42.716;23.306;2022-11-14T08:44:41;96263.72;;;5.14;100.00
20119;BME280;10220;42.716;23.306;2022-11-14T08:47:07;96261.59;;;5.54;100.00
20119;BME280;10220;42.716;23.306;2022-11-14T08:49:33;96295.50;;;5.84;100.00
20119;BME280;10220;42.716;23.306;2022-11-14T08:51:58;96238.47;;;5.54;100.00
20119;BME280;10220;42.716;23.306;2022-11-14T08:54:23;96269.28;;;5.81;100.00
20119;BME280;10220;42.716;23.306;2022-11-14T08:56:49;96289.56;;;5.57;100.00
20119;BME280;10220;42.716;23.306;2022-11-14T08:59:14;96266.25;;;5.68;100.00
20119;BME280;10220;42.716;23.306;2022-11-14T09:01:40;96253.00;;;5.89;100.00
20119;BME280;10220;42.716;23.306;2022-11-14T09:04:05;96277.84;;;6.24;100.00
20119;BME280;10220;42.716;23.306;2022-11-14T09:06:31;96251.31;;;6.23;100.00
20119;BME280;10220;42.716;23.306;2022-11-14T09:08:56;96282.16;;;5.81;100.00
20119;BME280;10220;42.716;23.306;2022-11-14T09:11:22;96259.22;;;5.87;100.00
20119;BME280;10220;42.716;23.306;2022-11-14T09:13:47;96273.97;;;6.02;100.00
20119;BME280;10220;42.716;23.306;2022-11-14T09:16:13;96255.81;;;6.21;100.00
20119;BME280;10220;42.716;23.306;2022-11-14T09:18:38;96237.28;;;6.18;100.00
20119;BME280;10220;42.716;23.306;2022-11-14T09:21:06;96232.63;;;6.39;100.00
20119;BME280;10220;42.716;23.306;2022-11-14T09:23:34;96223.03;;;6.48;100.00
20119;BME280;10220;42.716;23.306;2022-11-14T09:26:07;96222.78;;;6.59;100.00
20119;BME280;10220;42.716;23.306;2022-11-14T09:28:33;96237.69;;;6.81;100.00
20119;BME280;10220;42.716;23.306;2022-11-14T09:31:07;96206.13;;;6.71;100.00
20119;BME280;10220;42.716;23.306;2022-11-14T09:33:34;96217.38;;;6.70;100.00
20119;BME280;10220;42.716;23.306;2022-11-14T09:36:01;96204.19;;;6.73;100.00
20119;BME280;10220;42.716;23.306;2022-11-14T09:38:30;96246.78;;;7.01;100.00
20119;BME280;10220;42.716;23.306;2022-11-14T09:46:11;96214.91;;;6.94;100.00
20119;BME280;10220;42.716;23.306;2022-11-14T09:48:39;96239.69;;;6.95;100.00
20119;BME280;10220;42.716;23.306;2022-11-14T09:51:08;96228.53;;;6.87;100.00
20119;BME280;10220;42.716;23.306;2022-11-14T09:53:51;96201.31;;;6.84;100.00
20119;BME280;10220;42.716;23.306;2022-11-14T09:56:23;96225.44;;;7.16;100.00
20119;BME280;10220;42.716;23.306;2022-11-14T09:58:52;96210.84;;;7.25;100.00
20119;BME280;10220;42.716;23.306;2022-11-14T10:07:30;96201.69;;;7.54;100.00
20119;BME280;10220;42.716;23.306;2022-11-14T10:16:06;96199.00;;;7.71;100.00
20119;BME280;10220;42.716;23.306;2022-11-14T10:27:29;96164.00;;;8.40;100.00
20119;BME280;10220;42.716;23.306;2022-11-14T10:30:09;96166.88;;;8.37;100.00
20119;BME280;10220;42.716;23.306;2022-11-14T10:38:03;96150.53;;;8.99;100.00
20119;BME280;10220;42.716;23.306;2022-11-14T10:43:29;96145.09;;;9.16;100.00
20119;BME280;10220;42.716;23.306;2022-11-14T10:48:40;96153.47;;;8.88;100.00
20119;BME280;10220;42.716;23.306;2022-11-14T10:57:15;96134.81;;;8.78;100.00
20119;BME280;10220;42.716;23.306;2022-11-14T10:59:41;96131.69;;;8.90;100.00
20119;BME280;10220;42.716;23.306;2022-11-14T11:02:08;96134.81;;;9.08;100.00
20119;BME280;10220;42.716;23.306;2022-11-14T11:04:36;96083.00;;;9.02;100.00
20119;BME280;10220;42.716;23.306;2022-11-14T11:09:39;96122.25;;;10.31;100.00
20119;BME280;10220;42.716;23.306;2022-11-14T11:15:27;96104.34;;;10.94;100.00
20119;BME280;10220;42.716;23.306;2022-11-14T11:17:57;96070.16;;;11.25;100.00
20119;BME280;10220;42.716;23.306;2022-11-14T11:20:39;96111.53;;;11.12;100.00
20119;BME280;10220;42.716;23.306;2022-11-14T11:25:35;96107.88;;;10.29;100.00
20119;BME280;10220;42.716;23.306;2022-11-14T11:28:18;96105.91;;;10.74;100.00
20119;BME280;10220;42.716;23.306;2022-11-14T11:30:57;96105.59;;;11.54;100.00
20119;BME280;10220;42.716;23.306;2022-11-14T11:33:24;96090.28;;;12.34;100.00
20119;BME280;10220;42.716;23.306;2022-11-14T11:35:54;96083.16;;;12.49;100.00
20119;BME280;10220;42.716;23.306;2022-11-14T11:38:20;96060.78;;;12.14;100.00
20119;BME280;10220;42.716;23.306;2022-11-14T11:40:51;96074.31;;;12.77;100.00
20119;BME280;10220;42.716;23.306;2022-11-14T11:45:58;96035.31;;;12.03;100.00
20119;BME280;10220;42.716;23.306;2022-11-14T11:48:33;96069.66;;;11.99;100.00
20119;BME280;10220;42.716;23.306;2022-11-14T11:51:00;96079.94;;;11.23;100.00
20119;BME280;10220;42.716;23.306;2022-11-14T11:53:36;96077.94;;;11.25;100.00
20119;BME280;10220;42.716;23.306;2022-11-14T11:56:08;96065.44;;;10.58;100.00
20119;BME280;10220;42.716;23.306;2022-11-14T12:01:13;96066.94;;;10.67;100.00
20119;BME280;10220;42.716;23.306;2022-11-14T12:03:41;96080.78;;;10.74;100.00
20119;BME280;10220;42.716;23.306;2022-11-14T12:06:21;96060.75;;;10.68;100.00
20119;BME280;10220;42.716;23.306;2022-11-14T12:09:14;96065.63;;;10.92;100.00
20119;BME280;10220;42.716;23.306;2022-11-14T12:11:59;96060.34;;;10.51;100.00
20119;BME280;10220;42.716;23.306;2022-11-14T12:30:46;96026.31;;;11.30;100.00
20119;BME280;10220;42.716;23.306;2022-11-14T12:33:34;96020.28;;;11.23;100.00
20119;BME280;10220;42.716;23.306;2022-11-14T12:36:05;96021.59;;;11.13;100.00
20119;BME280;10220;42.716;23.306;2022-11-14T12:38:50;95992.03;;;10.72;100.00
20119;BME280;10220;42.716;23.306;2022-11-14T12:41:27;96023.84;;;11.02;100.00
20119;BME280;10220;42.716;23.306;2022-11-14T12:44:18;96029.06;;;11.22;100.00
20119;BME280;10220;42.716;23.306;2022-11-14T12:58:07;96004.78;;;11.30;100.00
20119;BME280;10220;42.716;23.306;2022-11-14T13:00:56;95997.13;;;11.64;100.00
20119;BME280;10220;42.716;23.306;2022-11-14T13:06:07;96010.22;;;11.35;100.00
20119;BME280;10220;42.716;23.306;2022-11-14T13:09:06;96007.91;;;11.46;100.00
20119;BME280;10220;42.716;23.306;2022-11-14T13:11:40;95990.03;;;11.10;100.00
20119;BME280;10220;42.716;23.306;2022-11-14T13:14:24;95998.34;;;11.47;100.00
20119;BME280;10220;42.716;23.306;2022-11-14T13:19:59;95989.22;;;11.78;100.00
20119;BME280;10220;42.716;23.306;2022-11-14T13:22:44;96008.22;;;11.85;100.00
20119;BME280;10220;42.716;23.306;2022-11-14T13:27:36;96028.13;;;11.99;100.00
20119;BME280;10220;42.716;23.306;2022-11-14T13:30:05;95981.63;;;12.10;100.00
20119;BME280;10220;42.716;23.306;2022-11-14T13:46:35;95982.44;;;11.77;100.00
20119;BME280;10220;42.716;23.306;2022-11-14T13:51:44;95981.69;;;12.17;100.00
20119;BME280;10220;42.716;23.306;2022-11-14T13:54:12;95977.75;;;12.33;100.00
20119;BME280;10220;42.716;23.306;2022-11-14T14:23:07;95972.00;;;12.04;100.00
20119;BME280;10220;42.716;23.306;2022-11-14T14:30:35;95955.91;;;11.54;100.00
20119;BME280;10220;42.716;23.306;2022-11-14T14:35:32;95955.03;;;10.78;100.00
20119;BME280;10220;42.716;23.306;2022-11-14T14:37:58;95969.53;;;11.14;100.00
20119;BME280;10220;42.716;23.306;2022-11-14T14:40:34;95971.78;;;11.45;100.00
20119;BME280;10220;42.716;23.306;2022-11-14T14:43:02;95965.69;;;11.52;100.00
20119;BME280;10220;42.716;23.306;2022-11-14T14:45:31;95967.75;;;11.63;100.00
20119;BME280;10220;42.716;23.306;2022-11-14T14:48:09;95963.06;;;11.79;100.00
20119;BME280;10220;42.716;23.306;2022-11-14T14:50:41;95944.38;;;11.36;100.00
20119;BME280;10220;42.716;23.306;2022-11-14T14:53:32;95964.56;;;11.40;100.00
20119;BME280;10220;42.716;23.306;2022-11-14T14:56:00;95957.31;;;11.57;100.00
20119;BME280;10220;42.716;23.306;2022-11-14T14:58:31;95958.69;;;11.80;100.00
20119;BME280;10220;42.716;23.306;2022-11-14T15:00:57;95956.16;;;11.59;100.00
20119;BME280;10220;42.716;23.306;2022-11-14T15:03:26;95967.47;;;11.31;100.00
20119;BME280;10220;42.716;23.306;2022-11-14T15:05:59;95963.38;;;11.15;100.00
20119;BME280;10220;42.716;23.306;2022-11-14T15:08:25;95935.34;;;10.84;100.00
20119;BME280;10220;42.716;23.306;2022-11-14T15:10:56;95944.28;;;10.81;100.00
20119;BME280;10220;42.716;23.306;2022-11-14T15:13:22;95958.91;;;11.10;100.00
20119;BME280;10220;42.716;23.306;2022-11-14T15:15:49;95936.63;;;11.15;100.00
20119;BME280;10220;42.716;23.306;2022-11-14T15:23:39;95942.91;;;11.06;100.00